Startpagina
METAR-TAF:

METAR-TAF

Vliegvelden :

Luchthaven Damascus

Damascus, Syrië

breedte: 33-25N, lengte: 036-31E, hoogte: 608 m

Actueel weer

Dit bericht is 17 minuten geleden gemaakt, om 06:00 UTC
Weinig wind
Temperatuur 4°C
Vochtigheid 87%
Druk 1019 hPa
Zicht: 2000 m
nevel

METAR: OSDI 070600Z 00000KT 2000 BR 04/02 Q1019

Tijdstip: 08:17 (06:17 UTC)

Verwachting

Dit bericht is 1 uur en het 17 minuten geleden gemaakt, om 05:00 UTC
Verwachting geldig van 07 om 06 UTC tot 08 om 12 UTC
Wind 3 kt uit variabele richting
Zicht: 3000 m
nevel
Tijdelijke
van 07 om 10 UTC tot 07 om 20 UTC
Wind 10 kt uit het zuidwesten
Zicht 10 km of meer
Weinig wolken op 3000 ft
Verspreide wolken op 10000 ft

TAF: OSDI 070500Z 0706/0812 VRB03KT 3000 BR TEMPO 0710/0720 22010KT 9999 FEW030 SCT100

Waarnemingen en weersverwachtingen van meer dan 4000 vliegvelden (METAR en TAF).

De beschikbare stations zijn de gele en rode punten op de kaart.

Ga met uw muis naar het station om de naam te zien.

Klik dan om waarnemingen en weersverwachtingen te zien.

kaart wijzigen: klik op de groene knoppen met een zwart kruis om in te zoomen, op de groene knop met een streepje om uit te zoomen of op de groene pijlen voor aangrenzende kaarten.


METAR-TAF: